sensor_id;sensor_type;location;lat;lon;timestamp;temperature;humidity
18126;DHT22;53956;52.442;13.284;2023-04-12T00:01:48;10.40;94.00
18126;DHT22;53956;52.442;13.284;2023-04-12T00:04:15;10.50;94.30
18126;DHT22;53956;52.442;13.284;2023-04-12T00:06:41;10.40;93.90
18126;DHT22;53956;52.442;13.284;2023-04-12T00:09:14;10.30;94.20
18126;DHT22;53956;52.442;13.284;2023-04-12T00:11:41;10.30;94.40
18126;DHT22;53956;52.442;13.284;2023-04-12T00:14:07;10.30;93.90
18126;DHT22;53956;52.442;13.284;2023-04-12T00:16:34;10.30;93.70
18126;DHT22;53956;52.442;13.284;2023-04-12T00:19:02;10.20;94.50
18126;DHT22;53956;52.442;13.284;2023-04-12T00:21:29;10.10;94.10
18126;DHT22;53956;52.442;13.284;2023-04-12T00:23:55;10.00;94.20
18126;DHT22;53956;52.442;13.284;2023-04-12T00:26:24;10.10;93.80
18126;DHT22;53956;52.442;13.284;2023-04-12T00:28:51;10.10;94.60
18126;DHT22;53956;52.442;13.284;2023-04-12T00:31:18;10.10;94.00
18126;DHT22;53956;52.442;13.284;2023-04-12T00:33:45;10.20;94.20
18126;DHT22;53956;52.442;13.284;2023-04-12T00:36:11;10.00;94.30
18126;DHT22;53956;52.442;13.284;2023-04-12T00:38:40;10.20;94.40
18126;DHT22;53956;52.442;13.284;2023-04-12T00:41:07;10.10;94.30
18126;DHT22;53956;52.442;13.284;2023-04-12T00:43:35;10.20;94.80
18126;DHT22;53956;52.442;13.284;2023-04-12T00:46:02;10.20;94.40
18126;DHT22;53956;52.442;13.284;2023-04-12T00:48:30;10.10;94.10
18126;DHT22;53956;52.442;13.284;2023-04-12T00:50:57;10.10;94.20
18126;DHT22;53956;52.442;13.284;2023-04-12T00:53:23;10.20;93.90
18126;DHT22;53956;52.442;13.284;2023-04-12T00:55:51;10.20;94.20
18126;DHT22;53956;52.442;13.284;2023-04-12T00:58:21;10.20;94.00
18126;DHT22;53956;52.442;13.284;2023-04-12T01:00:50;10.20;94.20
18126;DHT22;53956;52.442;13.284;2023-04-12T01:03:20;10.30;93.10
18126;DHT22;53956;52.442;13.284;2023-04-12T01:06:02;10.10;93.30
18126;DHT22;53956;52.442;13.284;2023-04-12T01:08:37;10.10;92.80
18126;DHT22;53956;52.442;13.284;2023-04-12T01:11:11;10.00;93.10
18126;DHT22;53956;52.442;13.284;2023-04-12T01:14:04;10.00;93.40
18126;DHT22;53956;52.442;13.284;2023-04-12T01:16:37;9.60;94.00
18126;DHT22;53956;52.442;13.284;2023-04-12T01:19:18;9.70;94.30
18126;DHT22;53956;52.442;13.284;2023-04-12T01:21:56;9.70;94.40
18126;DHT22;53956;52.442;13.284;2023-04-12T01:24:36;9.60;94.60
18126;DHT22;53956;52.442;13.284;2023-04-12T01:27:18;9.60;94.70
18126;DHT22;53956;52.442;13.284;2023-04-12T01:29:48;9.60;94.60
18126;DHT22;53956;52.442;13.284;2023-04-12T01:32:17;9.60;95.10
18126;DHT22;53956;52.442;13.284;2023-04-12T01:34:44;9.70;94.70
18126;DHT22;53956;52.442;13.284;2023-04-12T01:37:12;9.60;94.30
18126;DHT22;53956;52.442;13.284;2023-04-12T01:39:41;9.60;94.10
18126;DHT22;53956;52.442;13.284;2023-04-12T01:42:07;9.60;94.40
18126;DHT22;53956;52.442;13.284;2023-04-12T01:44:36;9.50;94.00
18126;DHT22;53956;52.442;13.284;2023-04-12T01:47:02;9.60;94.40
18126;DHT22;53956;52.442;13.284;2023-04-12T01:49:35;9.50;94.70
18126;DHT22;53956;52.442;13.284;2023-04-12T01:52:10;9.50;94.50
18126;DHT22;53956;52.442;13.284;2023-04-12T01:54:41;9.50;95.00
18126;DHT22;53956;52.442;13.284;2023-04-12T01:57:08;9.50;94.40
18126;DHT22;53956;52.442;13.284;2023-04-12T01:59:40;9.50;94.40
18126;DHT22;53956;52.442;13.284;2023-04-12T02:02:08;9.40;94.30
18126;DHT22;53956;52.442;13.284;2023-04-12T02:04:36;9.50;94.60
18126;DHT22;53956;52.442;13.284;2023-04-12T02:07:03;9.40;94.80
18126;DHT22;53956;52.442;13.284;2023-04-12T02:09:35;9.40;94.90
18126;DHT22;53956;52.442;13.284;2023-04-12T02:12:03;9.50;95.00
18126;DHT22;53956;52.442;13.284;2023-04-12T02:14:30;9.30;94.70
18126;DHT22;53956;52.442;13.284;2023-04-12T02:16:58;9.40;95.00
18126;DHT22;53956;52.442;13.284;2023-04-12T02:19:27;9.30;94.50
18126;DHT22;53956;52.442;13.284;2023-04-12T02:21:54;9.10;94.40
18126;DHT22;53956;52.442;13.284;2023-04-12T02:24:21;9.00;95.50
18126;DHT22;53956;52.442;13.284;2023-04-12T02:26:47;9.10;95.80
18126;DHT22;53956;52.442;13.284;2023-04-12T02:29:15;9.10;95.30
18126;DHT22;53956;52.442;13.284;2023-04-12T02:31:41;9.00;95.30
18126;DHT22;53956;52.442;13.284;2023-04-12T02:34:12;9.20;95.60
18126;DHT22;53956;52.442;13.284;2023-04-12T02:36:46;9.30;95.00
18126;DHT22;53956;52.442;13.284;2023-04-12T02:39:12;9.30;95.50
18126;DHT22;53956;52.442;13.284;2023-04-12T02:41:44;9.40;94.90
18126;DHT22;53956;52.442;13.284;2023-04-12T02:44:12;9.20;95.00
18126;DHT22;53956;52.442;13.284;2023-04-12T02:46:44;9.10;94.90
18126;DHT22;53956;52.442;13.284;2023-04-12T02:49:14;9.00;95.90
18126;DHT22;53956;52.442;13.284;2023-04-12T02:51:41;8.80;95.60
18126;DHT22;53956;52.442;13.284;2023-04-12T02:54:09;8.90;96.00
18126;DHT22;53956;52.442;13.284;2023-04-12T02:56:52;8.90;95.90
18126;DHT22;53956;52.442;13.284;2023-04-12T02:59:35;9.10;95.90
18126;DHT22;53956;52.442;13.284;2023-04-12T03:02:17;9.00;96.00
18126;DHT22;53956;52.442;13.284;2023-04-12T03:04:45;9.10;95.40
18126;DHT22;53956;52.442;13.284;2023-04-12T03:07:19;8.70;95.70
18126;DHT22;53956;52.442;13.284;2023-04-12T03:09:50;8.70;96.10
18126;DHT22;53956;52.442;13.284;2023-04-12T03:12:19;8.60;96.00
18126;DHT22;53956;52.442;13.284;2023-04-12T03:14:55;8.70;96.50
18126;DHT22;53956;52.442;13.284;2023-04-12T03:17:25;8.90;96.20
18126;DHT22;53956;52.442;13.284;2023-04-12T03:20:02;8.90;95.90
18126;DHT22;53956;52.442;13.284;2023-04-12T03:22:31;8.90;95.30
18126;DHT22;53956;52.442;13.284;2023-04-12T03:24:58;8.80;95.70
18126;DHT22;53956;52.442;13.284;2023-04-12T03:27:26;8.70;95.80
18126;DHT22;53956;52.442;13.284;2023-04-12T03:29:55;8.70;96.40
18126;DHT22;53956;52.442;13.284;2023-04-12T03:32:23;8.50;95.70
18126;DHT22;53956;52.442;13.284;2023-04-12T03:34:50;8.50;96.30
18126;DHT22;53956;52.442;13.284;2023-04-12T03:37:24;8.40;96.20
18126;DHT22;53956;52.442;13.284;2023-04-12T03:39:54;8.50;97.80
18126;DHT22;53956;52.442;13.284;2023-04-12T03:42:23;8.60;96.80
18126;DHT22;53956;52.442;13.284;2023-04-12T03:44:50;8.80;96.70
18126;DHT22;53956;52.442;13.284;2023-04-12T03:47:19;8.60;96.00
18126;DHT22;53956;52.442;13.284;2023-04-12T03:49:47;8.70;96.10
18126;DHT22;53956;52.442;13.284;2023-04-12T03:52:14;8.60;96.60
18126;DHT22;53956;52.442;13.284;2023-04-12T03:54:45;8.70;96.10
18126;DHT22;53956;52.442;13.284;2023-04-12T03:57:15;8.70;95.60
18126;DHT22;53956;52.442;13.284;2023-04-12T03:59:46;8.60;96.00
18126;DHT22;53956;52.442;13.284;2023-04-12T04:02:14;8.50;96.50
18126;DHT22;53956;52.442;13.284;2023-04-12T04:04:45;8.50;96.50
18126;DHT22;53956;52.442;13.284;2023-04-12T04:07:21;8.50;95.90
18126;DHT22;53956;52.442;13.284;2023-04-12T04:09:52;8.60;96.20
18126;DHT22;53956;52.442;13.284;2023-04-12T04:12:19;8.60;96.10
18126;DHT22;53956;52.442;13.284;2023-04-12T04:14:51;8.60;96.60
18126;DHT22;53956;52.442;13.284;2023-04-12T04:17:31;8.60;96.20
18126;DHT22;53956;52.442;13.284;2023-04-12T04:19:59;8.70;95.90
18126;DHT22;53956;52.442;13.284;2023-04-12T04:22:28;8.60;95.50
18126;DHT22;53956;52.442;13.284;2023-04-12T04:24:59;8.60;94.90
18126;DHT22;53956;52.442;13.284;2023-04-12T04:27:27;8.60;95.30
18126;DHT22;53956;52.442;13.284;2023-04-12T04:29:55;8.50;95.30
18126;DHT22;53956;52.442;13.284;2023-04-12T04:32:24;8.60;95.50
18126;DHT22;53956;52.442;13.284;2023-04-12T04:34:55;8.50;95.10
18126;DHT22;53956;52.442;13.284;2023-04-12T04:37:25;8.50;95.30
18126;DHT22;53956;52.442;13.284;2023-04-12T04:39:51;8.40;95.10
18126;DHT22;53956;52.442;13.284;2023-04-12T04:42:20;8.40;95.10
18126;DHT22;53956;52.442;13.284;2023-04-12T04:44:56;8.50;95.20
18126;DHT22;53956;52.442;13.284;2023-04-12T04:47:32;8.50;95.20
18126;DHT22;53956;52.442;13.284;2023-04-12T04:49:59;8.60;95.10
18126;DHT22;53956;52.442;13.284;2023-04-12T04:52:26;8.60;95.10
18126;DHT22;53956;52.442;13.284;2023-04-12T04:54:58;8.60;95.20
18126;DHT22;53956;52.442;13.284;2023-04-12T04:57:32;8.60;95.00
18126;DHT22;53956;52.442;13.284;2023-04-12T04:59:59;8.60;95.10
18126;DHT22;53956;52.442;13.284;2023-04-12T05:02:27;8.40;95.10
18126;DHT22;53956;52.442;13.284;2023-04-12T05:04:55;8.40;95.40
18126;DHT22;53956;52.442;13.284;2023-04-12T05:07:24;8.50;95.80
18126;DHT22;53956;52.442;13.284;2023-04-12T05:09:52;8.60;95.00
18126;DHT22;53956;52.442;13.284;2023-04-12T05:12:19;8.40;95.40
18126;DHT22;53956;52.442;13.284;2023-04-12T05:14:52;8.20;95.60
18126;DHT22;53956;52.442;13.284;2023-04-12T05:17:18;8.40;96.70
18126;DHT22;53956;52.442;13.284;2023-04-12T05:19:45;8.50;95.60
18126;DHT22;53956;52.442;13.284;2023-04-12T05:22:12;8.70;95.80
18126;DHT22;53956;52.442;13.284;2023-04-12T05:24:39;8.80;95.10
18126;DHT22;53956;52.442;13.284;2023-04-12T05:27:06;8.70;94.60
18126;DHT22;53956;52.442;13.284;2023-04-12T05:29:33;8.80;94.90
18126;DHT22;53956;52.442;13.284;2023-04-12T05:32:03;9.00;94.90
18126;DHT22;53956;52.442;13.284;2023-04-12T05:34:29;9.70;92.10
18126;DHT22;53956;52.442;13.284;2023-04-12T05:36:56;10.20;91.40
18126;DHT22;53956;52.442;13.284;2023-04-12T05:39:26;10.70;89.70
18126;DHT22;53956;52.442;13.284;2023-04-12T05:41:53;11.90;86.30
18126;DHT22;53956;52.442;13.284;2023-04-12T05:44:20;12.80;83.00
18126;DHT22;53956;52.442;13.284;2023-04-12T05:46:46;13.30;81.10
18126;DHT22;53956;52.442;13.284;2023-04-12T05:49:16;14.00;79.80
18126;DHT22;53956;52.442;13.284;2023-04-12T05:51:43;14.90;77.60
18126;DHT22;53956;52.442;13.284;2023-04-12T05:54:18;15.20;75.40
18126;DHT22;53956;52.442;13.284;2023-04-12T05:56:47;15.40;74.20
18126;DHT22;53956;52.442;13.284;2023-04-12T05:59:13;15.70;72.60
18126;DHT22;53956;52.442;13.284;2023-04-12T06:01:40;16.20;70.60
18126;DHT22;53956;52.442;13.284;2023-04-12T06:04:09;16.70;69.50
18126;DHT22;53956;52.442;13.284;2023-04-12T06:06:38;16.70;68.60
18126;DHT22;53956;52.442;13.284;2023-04-12T06:09:05;17.20;68.40
18126;DHT22;53956;52.442;13.284;2023-04-12T06:11:32;17.50;67.40
18126;DHT22;53956;52.442;13.284;2023-04-12T06:14:00;18.00;66.40
18126;DHT22;53956;52.442;13.284;2023-04-12T06:16:27;18.30;64.60
18126;DHT22;53956;52.442;13.284;2023-04-12T06:18:54;18.80;62.90
18126;DHT22;53956;52.442;13.284;2023-04-12T06:21:21;18.90;61.90
18126;DHT22;53956;52.442;13.284;2023-04-12T06:23:50;18.90;62.10
18126;DHT22;53956;52.442;13.284;2023-04-12T06:26:17;19.40;61.30
18126;DHT22;53956;52.442;13.284;2023-04-12T06:28:43;19.90;59.90
18126;DHT22;53956;52.442;13.284;2023-04-12T06:31:10;20.30;58.70
18126;DHT22;53956;52.442;13.284;2023-04-12T06:33:39;20.20;58.80
18126;DHT22;53956;52.442;13.284;2023-04-12T06:36:08;20.20;58.30
18126;DHT22;53956;52.442;13.284;2023-04-12T06:38:35;20.90;55.90
18126;DHT22;53956;52.442;13.284;2023-04-12T06:41:04;21.00;54.20
18126;DHT22;53956;52.442;13.284;2023-04-12T06:43:31;20.30;56.70
18126;DHT22;53956;52.442;13.284;2023-04-12T06:45:57;20.30;56.20
18126;DHT22;53956;52.442;13.284;2023-04-12T06:48:27;20.50;56.50
18126;DHT22;53956;52.442;13.284;2023-04-12T06:50:53;20.50;55.70
18126;DHT22;53956;52.442;13.284;2023-04-12T06:53:20;20.10;56.80
18126;DHT22;53956;52.442;13.284;2023-04-12T06:55:47;21.20;55.20
18126;DHT22;53956;52.442;13.284;2023-04-12T06:58:15;21.50;53.80
18126;DHT22;53956;52.442;13.284;2023-04-12T07:00:42;21.20;53.80
18126;DHT22;53956;52.442;13.284;2023-04-12T07:03:09;21.30;53.70
18126;DHT22;53956;52.442;13.284;2023-04-12T07:05:36;21.10;53.70
18126;DHT22;53956;52.442;13.284;2023-04-12T07:08:03;21.20;53.30
18126;DHT22;53956;52.442;13.284;2023-04-12T07:10:30;21.60;53.60
18126;DHT22;53956;52.442;13.284;2023-04-12T07:12:57;21.80;52.30
18126;DHT22;53956;52.442;13.284;2023-04-12T07:15:29;21.60;53.50
18126;DHT22;53956;52.442;13.284;2023-04-12T07:17:55;21.60;52.80
18126;DHT22;53956;52.442;13.284;2023-04-12T07:20:22;21.30;53.60
18126;DHT22;53956;52.442;13.284;2023-04-12T07:22:49;21.40;53.30
18126;DHT22;53956;52.442;13.284;2023-04-12T07:25:15;20.90;54.90
18126;DHT22;53956;52.442;13.284;2023-04-12T07:27:42;20.80;55.10
18126;DHT22;53956;52.442;13.284;2023-04-12T07:30:10;19.80;56.80
18126;DHT22;53956;52.442;13.284;2023-04-12T07:32:38;19.70;58.00
18126;DHT22;53956;52.442;13.284;2023-04-12T07:35:05;20.10;58.00
18126;DHT22;53956;52.442;13.284;2023-04-12T07:37:32;20.20;56.80
18126;DHT22;53956;52.442;13.284;2023-04-12T07:39:58;19.50;57.10
18126;DHT22;53956;52.442;13.284;2023-04-12T07:42:26;19.00;59.10
18126;DHT22;53956;52.442;13.284;2023-04-12T07:44:52;19.30;58.30
18126;DHT22;53956;52.442;13.284;2023-04-12T07:47:19;19.60;58.30
18126;DHT22;53956;52.442;13.284;2023-04-12T07:49:47;19.10;58.20
18126;DHT22;53956;52.442;13.284;2023-04-12T07:52:15;19.50;59.20
18126;DHT22;53956;52.442;13.284;2023-04-12T07:54:41;19.50;59.20
18126;DHT22;53956;52.442;13.284;2023-04-12T07:57:08;19.60;58.50
18126;DHT22;53956;52.442;13.284;2023-04-12T07:59:35;19.10;58.40
18126;DHT22;53956;52.442;13.284;2023-04-12T08:02:01;19.60;55.40
18126;DHT22;53956;52.442;13.284;2023-04-12T08:04:30;18.60;57.90
18126;DHT22;53956;52.442;13.284;2023-04-12T08:06:58;18.00;60.80
18126;DHT22;53956;52.442;13.284;2023-04-12T08:09:25;18.80;60.50
18126;DHT22;53956;52.442;13.284;2023-04-12T08:11:52;19.10;58.30
18126;DHT22;53956;52.442;13.284;2023-04-12T08:14:19;18.80;57.70
18126;DHT22;53956;52.442;13.284;2023-04-12T08:16:45;18.30;59.00
18126;DHT22;53956;52.442;13.284;2023-04-12T08:19:12;18.10;61.90
18126;DHT22;53956;52.442;13.284;2023-04-12T08:21:39;18.30;58.90
18126;DHT22;53956;52.442;13.284;2023-04-12T08:24:07;18.30;59.10
18126;DHT22;53956;52.442;13.284;2023-04-12T08:26:34;18.60;59.70
18126;DHT22;53956;52.442;13.284;2023-04-12T08:29:00;19.20;58.50
18126;DHT22;53956;52.442;13.284;2023-04-12T08:31:27;19.30;57.30
18126;DHT22;53956;52.442;13.284;2023-04-12T08:33:54;18.80;57.40
18126;DHT22;53956;52.442;13.284;2023-04-12T08:36:21;18.50;58.10
18126;DHT22;53956;52.442;13.284;2023-04-12T08:38:48;18.50;58.50
18126;DHT22;53956;52.442;13.284;2023-04-12T08:41:18;18.00;61.30
18126;DHT22;53956;52.442;13.284;2023-04-12T08:43:45;17.70;59.70
18126;DHT22;53956;52.442;13.284;2023-04-12T08:46:13;17.90;60.40
18126;DHT22;53956;52.442;13.284;2023-04-12T08:48:42;17.40;60.60
18126;DHT22;53956;52.442;13.284;2023-04-12T08:51:12;17.30;60.20
18126;DHT22;53956;52.442;13.284;2023-04-12T08:53:39;17.20;60.60
18126;DHT22;53956;52.442;13.284;2023-04-12T08:56:08;17.00;60.90
18126;DHT22;53956;52.442;13.284;2023-04-12T08:58:38;17.10;62.70
18126;DHT22;53956;52.442;13.284;2023-04-12T09:01:09;17.20;60.10
18126;DHT22;53956;52.442;13.284;2023-04-12T09:03:37;17.10;59.20
18126;DHT22;53956;52.442;13.284;2023-04-12T09:06:05;16.70;60.80
18126;DHT22;53956;52.442;13.284;2023-04-12T09:08:32;16.80;60.20
18126;DHT22;53956;52.442;13.284;2023-04-12T09:10:59;16.40;61.50
18126;DHT22;53956;52.442;13.284;2023-04-12T09:13:32;16.40;61.00
18126;DHT22;53956;52.442;13.284;2023-04-12T09:16:01;16.70;60.70
18126;DHT22;53956;52.442;13.284;2023-04-12T09:18:28;16.30;59.30
18126;DHT22;53956;52.442;13.284;2023-04-12T09:21:08;16.30;58.20
18126;DHT22;53956;52.442;13.284;2023-04-12T09:23:36;16.40;57.50
18126;DHT22;53956;52.442;13.284;2023-04-12T09:26:03;16.10;58.50
18126;DHT22;53956;52.442;13.284;2023-04-12T09:28:31;16.10;58.40
18126;DHT22;53956;52.442;13.284;2023-04-12T09:30:58;16.40;59.80
18126;DHT22;53956;52.442;13.284;2023-04-12T09:33:34;16.70;59.10
18126;DHT22;53956;52.442;13.284;2023-04-12T09:36:01;16.80;58.50
18126;DHT22;53956;52.442;13.284;2023-04-12T09:38:28;16.80;59.00
18126;DHT22;53956;52.442;13.284;2023-04-12T09:40:55;16.60;58.70
18126;DHT22;53956;52.442;13.284;2023-04-12T09:43:35;16.80;58.20
18126;DHT22;53956;52.442;13.284;2023-04-12T09:46:08;16.50;56.50
18126;DHT22;53956;52.442;13.284;2023-04-12T09:48:38;16.40;54.70
18126;DHT22;53956;52.442;13.284;2023-04-12T09:51:05;16.50;55.50
18126;DHT22;53956;52.442;13.284;2023-04-12T09:53:33;16.10;56.80
18126;DHT22;53956;52.442;13.284;2023-04-12T09:56:02;16.20;56.10
18126;DHT22;53956;52.442;13.284;2023-04-12T09:58:30;16.50;55.60
18126;DHT22;53956;52.442;13.284;2023-04-12T10:01:00;16.60;56.40
18126;DHT22;53956;52.442;13.284;2023-04-12T10:03:27;16.80;57.20
18126;DHT22;53956;52.442;13.284;2023-04-12T10:05:56;16.90;56.00
18126;DHT22;53956;52.442;13.284;2023-04-12T10:08:23;16.90;55.40
18126;DHT22;53956;52.442;13.284;2023-04-12T10:10:52;16.40;57.00
18126;DHT22;53956;52.442;13.284;2023-04-12T10:13:20;16.40;56.40
18126;DHT22;53956;52.442;13.284;2023-04-12T10:15:48;16.80;57.20
18126;DHT22;53956;52.442;13.284;2023-04-12T10:18:17;16.60;54.60
18126;DHT22;53956;52.442;13.284;2023-04-12T10:20:45;16.70;54.70
18126;DHT22;53956;52.442;13.284;2023-04-12T10:23:17;16.70;55.10
18126;DHT22;53956;52.442;13.284;2023-04-12T10:25:45;16.70;57.00
18126;DHT22;53956;52.442;13.284;2023-04-12T10:28:13;16.50;55.90
18126;DHT22;53956;52.442;13.284;2023-04-12T10:30:40;16.70;56.30
18126;DHT22;53956;52.442;13.284;2023-04-12T10:33:14;16.70;55.90
18126;DHT22;53956;52.442;13.284;2023-04-12T10:35:52;16.40;54.80
18126;DHT22;53956;52.442;13.284;2023-04-12T10:38:21;16.40;57.00
18126;DHT22;53956;52.442;13.284;2023-04-12T10:41:11;16.90;56.00
18126;DHT22;53956;52.442;13.284;2023-04-12T10:43:38;16.90;56.20
18126;DHT22;53956;52.442;13.284;2023-04-12T10:46:05;16.80;54.20
18126;DHT22;53956;52.442;13.284;2023-04-12T10:48:33;16.90;54.90
18126;DHT22;53956;52.442;13.284;2023-04-12T10:51:15;16.90;55.50
18126;DHT22;53956;52.442;13.284;2023-04-12T10:53:47;16.70;55.20
18126;DHT22;53956;52.442;13.284;2023-04-12T10:56:36;16.70;54.50
18126;DHT22;53956;52.442;13.284;2023-04-12T10:59:04;16.80;55.50
18126;DHT22;53956;52.442;13.284;2023-04-12T11:01:38;16.80;54.30
18126;DHT22;53956;52.442;13.284;2023-04-12T11:04:16;16.80;54.40
18126;DHT22;53956;52.442;13.284;2023-04-12T11:06:57;16.90;55.50
18126;DHT22;53956;52.442;13.284;2023-04-12T11:09:42;16.70;56.20
18126;DHT22;53956;52.442;13.284;2023-04-12T11:12:14;16.90;54.10
18126;DHT22;53956;52.442;13.284;2023-04-12T11:14:45;16.80;55.30
18126;DHT22;53956;52.442;13.284;2023-04-12T11:17:23;16.80;55.50
18126;DHT22;53956;52.442;13.284;2023-04-12T11:19:52;17.00;54.50
18126;DHT22;53956;52.442;13.284;2023-04-12T11:22:21;17.20;55.20
18126;DHT22;53956;52.442;13.284;2023-04-12T11:24:50;17.30;54.20
18126;DHT22;53956;52.442;13.284;2023-04-12T11:27:18;17.10;53.30
18126;DHT22;53956;52.442;13.284;2023-04-12T11:29:48;17.00;54.20
18126;DHT22;53956;52.442;13.284;2023-04-12T11:32:15;17.10;53.90
18126;DHT22;53956;52.442;13.284;2023-04-12T11:34:44;17.10;52.90
18126;DHT22;53956;52.442;13.284;2023-04-12T11:37:11;16.90;53.10
18126;DHT22;53956;52.442;13.284;2023-04-12T11:39:39;16.90;53.60
18126;DHT22;53956;52.442;13.284;2023-04-12T11:42:11;16.80;53.40
18126;DHT22;53956;52.442;13.284;2023-04-12T11:44:41;16.70;53.60
18126;DHT22;53956;52.442;13.284;2023-04-12T11:47:13;16.70;53.70
18126;DHT22;53956;52.442;13.284;2023-04-12T11:49:43;16.60;53.50
18126;DHT22;53956;52.442;13.284;2023-04-12T11:52:10;16.60;53.30
18126;DHT22;53956;52.442;13.284;2023-04-12T11:54:40;16.50;54.70
18126;DHT22;53956;52.442;13.284;2023-04-12T11:57:10;16.60;54.60
18126;DHT22;53956;52.442;13.284;2023-04-12T11:59:37;16.50;54.30
18126;DHT22;53956;52.442;13.284;2023-04-12T12:02:06;16.60;54.90
18126;DHT22;53956;52.442;13.284;2023-04-12T12:04:33;16.60;54.10
18126;DHT22;53956;52.442;13.284;2023-04-12T12:07:00;16.60;54.70
18126;DHT22;53956;52.442;13.284;2023-04-12T12:09:28;16.40;54.20
18126;DHT22;53956;52.442;13.284;2023-04-12T12:11:56;16.40;54.60
18126;DHT22;53956;52.442;13.284;2023-04-12T12:14:24;16.60;54.40
18126;DHT22;53956;52.442;13.284;2023-04-12T12:16:52;16.50;55.20
18126;DHT22;53956;52.442;13.284;2023-04-12T12:19:28;16.70;54.40
18126;DHT22;53956;52.442;13.284;2023-04-12T12:22:14;16.70;54.60
18126;DHT22;53956;52.442;13.284;2023-04-12T12:24:45;16.70;53.90
18126;DHT22;53956;52.442;13.284;2023-04-12T12:27:16;16.60;54.00
18126;DHT22;53956;52.442;13.284;2023-04-12T12:29:48;16.50;54.30
18126;DHT22;53956;52.442;13.284;2023-04-12T12:32:16;16.60;54.00
18126;DHT22;53956;52.442;13.284;2023-04-12T12:34:50;16.60;53.90
18126;DHT22;53956;52.442;13.284;2023-04-12T12:37:19;16.80;54.40
18126;DHT22;53956;52.442;13.284;2023-04-12T12:40:02;16.70;54.10
18126;DHT22;53956;52.442;13.284;2023-04-12T12:42:42;16.60;54.30
18126;DHT22;53956;52.442;13.284;2023-04-12T12:45:11;16.70;54.40
18126;DHT22;53956;52.442;13.284;2023-04-12T12:47:49;16.80;54.40
18126;DHT22;53956;52.442;13.284;2023-04-12T12:50:16;16.60;54.20
18126;DHT22;53956;52.442;13.284;2023-04-12T12:52:44;16.80;54.70
18126;DHT22;53956;52.442;13.284;2023-04-12T12:55:11;16.70;54.90
18126;DHT22;53956;52.442;13.284;2023-04-12T12:57:38;16.90;54.20
18126;DHT22;53956;52.442;13.284;2023-04-12T13:00:06;16.80;54.10
18126;DHT22;53956;52.442;13.284;2023-04-12T13:02:35;16.70;54.00
18126;DHT22;53956;52.442;13.284;2023-04-12T13:05:03;16.70;54.40
18126;DHT22;53956;52.442;13.284;2023-04-12T13:07:30;16.70;54.30
18126;DHT22;53956;52.442;13.284;2023-04-12T13:09:57;16.80;55.10
18126;DHT22;53956;52.442;13.284;2023-04-12T13:12:23;16.80;53.80
18126;DHT22;53956;52.442;13.284;2023-04-12T13:14:50;16.70;53.70
18126;DHT22;53956;52.442;13.284;2023-04-12T13:17:17;16.80;53.70
18126;DHT22;53956;52.442;13.284;2023-04-12T13:19:45;16.90;54.10
18126;DHT22;53956;52.442;13.284;2023-04-12T13:22:12;17.00;55.50
18126;DHT22;53956;52.442;13.284;2023-04-12T13:24:39;17.00;55.50
18126;DHT22;53956;52.442;13.284;2023-04-12T13:27:06;17.00;53.90
18126;DHT22;53956;52.442;13.284;2023-04-12T13:29:33;17.00;55.00
18126;DHT22;53956;52.442;13.284;2023-04-12T13:32:00;16.90;54.90
18126;DHT22;53956;52.442;13.284;2023-04-12T13:34:26;16.90;55.30
18126;DHT22;53956;52.442;13.284;2023-04-12T13:36:54;16.80;55.00
18126;DHT22;53956;52.442;13.284;2023-04-12T13:39:21;16.80;55.20
18126;DHT22;53956;52.442;13.284;2023-04-12T13:41:48;17.00;55.60
18126;DHT22;53956;52.442;13.284;2023-04-12T13:44:14;16.90;55.00
18126;DHT22;53956;52.442;13.284;2023-04-12T13:46:41;16.90;55.80
18126;DHT22;53956;52.442;13.284;2023-04-12T13:49:08;16.80;56.00
18126;DHT22;53956;52.442;13.284;2023-04-12T13:51:34;16.60;56.20
18126;DHT22;53956;52.442;13.284;2023-04-12T13:54:02;16.70;55.90
18126;DHT22;53956;52.442;13.284;2023-04-12T13:56:29;16.60;56.00
18126;DHT22;53956;52.442;13.284;2023-04-12T13:58:56;16.70;55.90
18126;DHT22;53956;52.442;13.284;2023-04-12T14:01:23;16.50;56.20
18126;DHT22;53956;52.442;13.284;2023-04-12T14:03:50;16.60;56.80
18126;DHT22;53956;52.442;13.284;2023-04-12T14:06:17;16.60;56.20
18126;DHT22;53956;52.442;13.284;2023-04-12T14:08:44;16.60;56.60
18126;DHT22;53956;52.442;13.284;2023-04-12T14:11:12;16.60;56.40
18126;DHT22;53956;52.442;13.284;2023-04-12T14:13:39;16.50;56.10
18126;DHT22;53956;52.442;13.284;2023-04-12T14:16:06;16.50;56.10
18126;DHT22;53956;52.442;13.284;2023-04-12T14:18:33;16.40;55.80
18126;DHT22;53956;52.442;13.284;2023-04-12T14:20:59;16.30;55.80
18126;DHT22;53956;52.442;13.284;2023-04-12T14:23:28;16.40;56.10
18126;DHT22;53956;52.442;13.284;2023-04-12T14:25:55;16.40;57.20
18126;DHT22;53956;52.442;13.284;2023-04-12T14:28:23;16.50;57.40
18126;DHT22;53956;52.442;13.284;2023-04-12T14:30:55;16.50;57.20
18126;DHT22;53956;52.442;13.284;2023-04-12T14:33:22;16.50;58.10
18126;DHT22;53956;52.442;13.284;2023-04-12T14:35:49;16.40;58.20
18126;DHT22;53956;52.442;13.284;2023-04-12T14:38:18;16.30;58.50
18126;DHT22;53956;52.442;13.284;2023-04-12T14:40:44;16.40;59.20
18126;DHT22;53956;52.442;13.284;2023-04-12T14:43:11;16.20;60.40
18126;DHT22;53956;52.442;13.284;2023-04-12T14:45:39;16.10;61.00
18126;DHT22;53956;52.442;13.284;2023-04-12T14:48:05;16.00;62.60
18126;DHT22;53956;52.442;13.284;2023-04-12T14:50:32;16.00;61.90
18126;DHT22;53956;52.442;13.284;2023-04-12T14:52:59;15.90;62.30
18126;DHT22;53956;52.442;13.284;2023-04-12T14:55:26;16.00;62.90
18126;DHT22;53956;52.442;13.284;2023-04-12T14:57:52;15.80;64.10
18126;DHT22;53956;52.442;13.284;2023-04-12T15:00:20;15.90;65.10
18126;DHT22;53956;52.442;13.284;2023-04-12T15:02:49;15.80;66.80
18126;DHT22;53956;52.442;13.284;2023-04-12T15:05:15;15.80;68.10
18126;DHT22;53956;52.442;13.284;2023-04-12T15:07:42;15.70;70.70
18126;DHT22;53956;52.442;13.284;2023-04-12T15:10:09;15.70;73.50
18126;DHT22;53956;52.442;13.284;2023-04-12T15:12:38;15.40;76.00
18126;DHT22;53956;52.442;13.284;2023-04-12T15:15:06;15.40;77.20
18126;DHT22;53956;52.442;13.284;2023-04-12T15:17:33;15.30;79.00
18126;DHT22;53956;52.442;13.284;2023-04-12T15:20:01;15.40;81.80
18126;DHT22;53956;52.442;13.284;2023-04-12T15:22:33;15.30;82.50
18126;DHT22;53956;52.442;13.284;2023-04-12T15:25:00;15.00;85.60
18126;DHT22;53956;52.442;13.284;2023-04-12T15:27:27;14.90;85.70
18126;DHT22;53956;52.442;13.284;2023-04-12T15:29:55;14.90;87.30
18126;DHT22;53956;52.442;13.284;2023-04-12T15:32:22;14.80;88.70